sensor_id;sensor_type;location;lat;lon;timestamp;pressure;altitude;pressure_sealevel;temperature;humidity
49529;BME280;35423;37.320;-121.762;2023-11-19T00:02:13;99883.85;;;26.83;28.18
49529;BME280;35423;37.320;-121.762;2023-11-19T00:04:57;99884.67;;;27.42;28.13
49529;BME280;35423;37.320;-121.762;2023-11-19T00:07:12;99887.35;;;26.90;28.17
49529;BME280;35423;37.320;-121.762;2023-11-19T00:09:37;99892.99;;;27.15;28.26
49529;BME280;35423;37.320;-121.762;2023-11-19T00:12:04;99899.03;;;27.14;28.46
49529;BME280;35423;37.320;-121.762;2023-11-19T00:14:34;99910.49;;;26.22;29.00
49529;BME280;35423;37.320;-121.762;2023-11-19T00:17:01;99922.26;;;26.90;29.42
49529;BME280;35423;37.320;-121.762;2023-11-19T00:19:27;99928.40;;;26.36;29.87
49529;BME280;35423;37.320;-121.762;2023-11-19T00:21:56;99936.96;;;26.32;30.11
49529;BME280;35423;37.320;-121.762;2023-11-19T00:24:20;99945.54;;;26.02;30.53
49529;BME280;35423;37.320;-121.762;2023-11-19T00:26:47;99944.36;;;25.76;30.92
49529;BME280;35423;37.320;-121.762;2023-11-19T00:29:13;99941.97;;;25.62;31.21
49529;BME280;35423;37.320;-121.762;2023-11-19T00:31:39;99946.93;;;25.91;31.51
49529;BME280;35423;37.320;-121.762;2023-11-19T00:34:04;99952.92;;;25.84;31.81
49529;BME280;35423;37.320;-121.762;2023-11-19T00:36:30;99954.40;;;25.61;31.79
49529;BME280;35423;37.320;-121.762;2023-11-19T00:38:58;99958.19;;;25.82;31.95
49529;BME280;35423;37.320;-121.762;2023-11-19T00:41:25;99965.71;;;25.32;32.02
49529;BME280;35423;37.320;-121.762;2023-11-19T00:43:50;99972.80;;;25.24;32.09
49529;BME280;35423;37.320;-121.762;2023-11-19T00:46:16;99977.41;;;25.23;32.23
49529;BME280;35423;37.320;-121.762;2023-11-19T00:48:42;99986.27;;;25.49;32.37
49529;BME280;35423;37.320;-121.762;2023-11-19T00:51:13;99989.39;;;25.04;32.37
49529;BME280;35423;37.320;-121.762;2023-11-19T00:53:37;99979.91;;;25.34;32.52
49529;BME280;35423;37.320;-121.762;2023-11-19T00:56:02;99981.80;;;25.10;32.45
49529;BME280;35423;37.320;-121.762;2023-11-19T00:58:30;99985.57;;;25.43;32.54
49529;BME280;35423;37.320;-121.762;2023-11-19T01:01:02;99991.35;;;25.51;32.42
49529;BME280;35423;37.320;-121.762;2023-11-19T01:03:26;99996.69;;;25.46;32.47
49529;BME280;35423;37.320;-121.762;2023-11-19T01:05:50;99997.25;;;25.37;32.52
49529;BME280;35423;37.320;-121.762;2023-11-19T01:08:17;99998.26;;;24.73;32.58
49529;BME280;35423;37.320;-121.762;2023-11-19T01:10:48;99993.93;;;25.38;32.91
49529;BME280;35423;37.320;-121.762;2023-11-19T01:13:14;100001.14;;;24.70;33.08
49529;BME280;35423;37.320;-121.762;2023-11-19T01:15:44;100002.08;;;25.36;33.15
49529;BME280;35423;37.320;-121.762;2023-11-19T01:18:07;99996.51;;;24.48;33.36
49529;BME280;35423;37.320;-121.762;2023-11-19T01:20:36;99996.15;;;24.97;33.30
49529;BME280;35423;37.320;-121.762;2023-11-19T01:23:00;100003.37;;;24.32;33.29
49529;BME280;35423;37.320;-121.762;2023-11-19T01:25:27;100006.82;;;25.09;33.24
49529;BME280;35423;37.320;-121.762;2023-11-19T01:27:56;100015.29;;;24.79;33.45
49529;BME280;35423;37.320;-121.762;2023-11-19T01:30:20;100016.87;;;24.49;33.42
49529;BME280;35423;37.320;-121.762;2023-11-19T01:32:49;100019.88;;;24.71;33.49
49529;BME280;35423;37.320;-121.762;2023-11-19T01:35:16;100024.07;;;24.58;33.26
49529;BME280;35423;37.320;-121.762;2023-11-19T01:37:48;100029.05;;;24.99;33.20
49529;BME280;35423;37.320;-121.762;2023-11-19T01:40:12;100034.70;;;24.65;33.00
49529;BME280;35423;37.320;-121.762;2023-11-19T01:42:42;100037.73;;;24.88;32.98
49529;BME280;35423;37.320;-121.762;2023-11-19T01:45:10;100034.88;;;24.57;32.76
49529;BME280;35423;37.320;-121.762;2023-11-19T01:47:37;100037.88;;;25.59;32.58
49529;BME280;35423;37.320;-121.762;2023-11-19T01:50:02;100040.38;;;24.86;32.58
49529;BME280;35423;37.320;-121.762;2023-11-19T01:52:28;100044.03;;;24.91;32.48
49529;BME280;35423;37.320;-121.762;2023-11-19T01:54:54;100045.98;;;25.18;32.34
49529;BME280;35423;37.320;-121.762;2023-11-19T01:57:19;100051.35;;;25.26;32.47
49529;BME280;35423;37.320;-121.762;2023-11-19T01:59:50;100059.65;;;25.18;32.57
49529;BME280;35423;37.320;-121.762;2023-11-19T02:02:16;100076.11;;;24.73;32.66
49529;BME280;35423;37.320;-121.762;2023-11-19T02:04:49;100077.71;;;24.60;32.66
49529;BME280;35423;37.320;-121.762;2023-11-19T02:07:17;100071.78;;;24.51;32.73
49529;BME280;35423;37.320;-121.762;2023-11-19T02:09:42;100078.73;;;25.12;32.59
49529;BME280;35423;37.320;-121.762;2023-11-19T02:12:09;100084.50;;;24.54;32.71
49529;BME280;35423;37.320;-121.762;2023-11-19T02:14:35;100090.49;;;24.76;32.78
49529;BME280;35423;37.320;-121.762;2023-11-19T02:17:04;100092.15;;;25.05;32.88
49529;BME280;35423;37.320;-121.762;2023-11-19T02:19:39;100100.88;;;24.74;32.85
49529;BME280;35423;37.320;-121.762;2023-11-19T02:22:06;100102.22;;;25.15;32.96
49529;BME280;35423;37.320;-121.762;2023-11-19T02:24:40;100105.16;;;24.84;33.18
49529;BME280;35423;37.320;-121.762;2023-11-19T02:27:15;100104.69;;;25.02;33.23
49529;BME280;35423;37.320;-121.762;2023-11-19T02:29:40;100110.03;;;24.60;33.19
49529;BME280;35423;37.320;-121.762;2023-11-19T02:32:10;100111.50;;;24.35;33.12
49529;BME280;35423;37.320;-121.762;2023-11-19T02:34:36;100108.57;;;24.58;33.12
49529;BME280;35423;37.320;-121.762;2023-11-19T02:37:06;100101.44;;;24.87;33.06
49529;BME280;35423;37.320;-121.762;2023-11-19T02:39:31;100105.84;;;24.63;32.99
49529;BME280;35423;37.320;-121.762;2023-11-19T02:41:58;100110.05;;;24.80;33.13
49529;BME280;35423;37.320;-121.762;2023-11-19T02:44:27;100116.24;;;24.53;33.15
49529;BME280;35423;37.320;-121.762;2023-11-19T02:46:53;100119.93;;;24.98;33.15
49529;BME280;35423;37.320;-121.762;2023-11-19T02:49:18;100125.96;;;24.98;33.22
49529;BME280;35423;37.320;-121.762;2023-11-19T02:51:46;100129.82;;;24.62;33.37
49529;BME280;35423;37.320;-121.762;2023-11-19T02:54:12;100142.93;;;24.06;33.42
49529;BME280;35423;37.320;-121.762;2023-11-19T02:56:38;100150.96;;;24.75;33.47
49529;BME280;35423;37.320;-121.762;2023-11-19T02:59:07;100154.16;;;24.78;33.46
49529;BME280;35423;37.320;-121.762;2023-11-19T03:01:32;100155.76;;;24.71;33.56
49529;BME280;35423;37.320;-121.762;2023-11-19T03:03:57;100161.37;;;24.75;33.59
49529;BME280;35423;37.320;-121.762;2023-11-19T03:06:23;100164.42;;;23.96;33.43
49529;BME280;35423;37.320;-121.762;2023-11-19T03:08:55;100171.60;;;24.74;33.37
49529;BME280;35423;37.320;-121.762;2023-11-19T03:11:22;100175.87;;;24.45;33.34
49529;BME280;35423;37.320;-121.762;2023-11-19T03:13:49;100174.88;;;24.96;33.28
49529;BME280;35423;37.320;-121.762;2023-11-19T03:16:17;100169.10;;;24.00;33.23
49529;BME280;35423;37.320;-121.762;2023-11-19T03:18:42;100166.38;;;24.64;33.23
49529;BME280;35423;37.320;-121.762;2023-11-19T03:21:10;100162.44;;;24.06;33.34
49529;BME280;35423;37.320;-121.762;2023-11-19T03:23:37;100160.81;;;24.36;33.46
49529;BME280;35423;37.320;-121.762;2023-11-19T03:26:08;100168.59;;;24.57;33.25
49529;BME280;35423;37.320;-121.762;2023-11-19T03:28:31;100161.63;;;24.13;33.47
49529;BME280;35423;37.320;-121.762;2023-11-19T03:31:00;100165.13;;;24.46;33.67
49529;BME280;35423;37.320;-121.762;2023-11-19T03:33:25;100162.15;;;23.58;33.83
49529;BME280;35423;37.320;-121.762;2023-11-19T03:35:49;100164.77;;;24.13;33.77
49529;BME280;35423;37.320;-121.762;2023-11-19T03:38:18;100175.80;;;23.24;33.82
49529;BME280;35423;37.320;-121.762;2023-11-19T03:40:47;100183.61;;;24.12;33.60
49529;BME280;35423;37.320;-121.762;2023-11-19T03:43:15;100182.98;;;23.60;33.64
49529;BME280;35423;37.320;-121.762;2023-11-19T03:45:42;100189.87;;;24.13;33.57
49529;BME280;35423;37.320;-121.762;2023-11-19T03:48:10;100193.29;;;23.81;33.57
49529;BME280;35423;37.320;-121.762;2023-11-19T03:50:38;100202.40;;;24.32;33.46
49529;BME280;35423;37.320;-121.762;2023-11-19T03:53:05;100215.98;;;23.34;33.43
49529;BME280;35423;37.320;-121.762;2023-11-19T03:55:33;100223.01;;;24.27;33.37
49529;BME280;35423;37.320;-121.762;2023-11-19T03:58:01;100229.16;;;23.51;33.50
49529;BME280;35423;37.320;-121.762;2023-11-19T04:00:26;100230.17;;;24.04;33.42
49529;BME280;35423;37.320;-121.762;2023-11-19T04:02:52;100228.76;;;23.64;33.56
49529;BME280;35423;37.320;-121.762;2023-11-19T04:05:23;100231.40;;;24.15;33.54
49529;BME280;35423;37.320;-121.762;2023-11-19T04:07:49;100238.14;;;23.66;33.56
49529;BME280;35423;37.320;-121.762;2023-11-19T04:10:20;100242.11;;;23.30;33.47
49529;BME280;35423;37.320;-121.762;2023-11-19T04:12:47;100246.37;;;23.69;33.58
49529;BME280;35423;37.320;-121.762;2023-11-19T04:15:15;100252.46;;;23.69;33.60
49529;BME280;35423;37.320;-121.762;2023-11-19T04:17:48;100258.06;;;23.72;33.68
49529;BME280;35423;37.320;-121.762;2023-11-19T04:20:14;100258.93;;;24.25;33.71
49529;BME280;35423;37.320;-121.762;2023-11-19T04:22:40;100264.33;;;24.19;33.87
49529;BME280;35423;37.320;-121.762;2023-11-19T04:25:18;100276.74;;;23.78;33.88
49529;BME280;35423;37.320;-121.762;2023-11-19T04:27:43;100281.48;;;24.02;33.94
49529;BME280;35423;37.320;-121.762;2023-11-19T04:30:11;100287.78;;;23.78;33.90
49529;BME280;35423;37.320;-121.762;2023-11-19T04:32:37;100298.69;;;24.23;33.91
49529;BME280;35423;37.320;-121.762;2023-11-19T04:35:04;100305.81;;;24.19;33.94
49529;BME280;35423;37.320;-121.762;2023-11-19T04:37:28;100318.08;;;24.29;34.13
49529;BME280;35423;37.320;-121.762;2023-11-19T04:40:10;100320.23;;;23.77;34.27
49529;BME280;35423;37.320;-121.762;2023-11-19T04:42:34;100317.02;;;23.71;34.35
49529;BME280;35423;37.320;-121.762;2023-11-19T04:45:00;100320.60;;;23.91;34.39
49529;BME280;35423;37.320;-121.762;2023-11-19T04:47:28;100325.46;;;23.81;34.53
49529;BME280;35423;37.320;-121.762;2023-11-19T04:49:55;100325.66;;;23.61;34.50
49529;BME280;35423;37.320;-121.762;2023-11-19T04:52:19;100330.92;;;23.74;34.61
49529;BME280;35423;37.320;-121.762;2023-11-19T04:54:49;100334.69;;;23.57;34.68
49529;BME280;35423;37.320;-121.762;2023-11-19T04:57:15;100339.34;;;23.76;34.77
49529;BME280;35423;37.320;-121.762;2023-11-19T04:59:53;100343.53;;;23.77;34.82
49529;BME280;35423;37.320;-121.762;2023-11-19T05:02:05;100349.74;;;24.04;34.82
49529;BME280;35423;37.320;-121.762;2023-11-19T05:04:43;100352.09;;;23.72;34.90
49529;BME280;35423;37.320;-121.762;2023-11-19T05:07:04;100355.22;;;23.72;34.86
49529;BME280;35423;37.320;-121.762;2023-11-19T05:09:28;100359.17;;;23.70;34.72
49529;BME280;35423;37.320;-121.762;2023-11-19T05:11:56;100360.08;;;23.59;34.68
49529;BME280;35423;37.320;-121.762;2023-11-19T05:14:26;100371.18;;;23.58;34.61
49529;BME280;35423;37.320;-121.762;2023-11-19T05:16:57;100377.35;;;23.50;34.60
49529;BME280;35423;37.320;-121.762;2023-11-19T05:19:19;100388.61;;;22.99;34.59
49529;BME280;35423;37.320;-121.762;2023-11-19T05:21:45;100389.80;;;23.72;34.55
49529;BME280;35423;37.320;-121.762;2023-11-19T05:24:12;100398.25;;;23.38;34.56
49529;BME280;35423;37.320;-121.762;2023-11-19T05:26:36;100404.52;;;23.33;34.58
49529;BME280;35423;37.320;-121.762;2023-11-19T05:29:06;100410.74;;;23.28;34.63
49529;BME280;35423;37.320;-121.762;2023-11-19T05:31:35;100409.14;;;23.17;34.76
49529;BME280;35423;37.320;-121.762;2023-11-19T05:34:01;100413.26;;;23.53;34.91
49529;BME280;35423;37.320;-121.762;2023-11-19T05:36:33;100422.14;;;23.13;35.09
49529;BME280;35423;37.320;-121.762;2023-11-19T05:39:07;100427.65;;;23.35;35.10
49529;BME280;35423;37.320;-121.762;2023-11-19T05:41:33;100430.12;;;22.85;35.10
49529;BME280;35423;37.320;-121.762;2023-11-19T05:44:00;100426.60;;;23.27;35.24
49529;BME280;35423;37.320;-121.762;2023-11-19T05:46:28;100428.00;;;23.29;35.26
49529;BME280;35423;37.320;-121.762;2023-11-19T05:48:54;100431.27;;;23.10;35.24
49529;BME280;35423;37.320;-121.762;2023-11-19T05:51:21;100431.53;;;22.84;35.28
49529;BME280;35423;37.320;-121.762;2023-11-19T05:53:47;100446.74;;;22.85;35.32
49529;BME280;35423;37.320;-121.762;2023-11-19T05:56:13;100505.59;;;22.72;35.21
49529;BME280;35423;37.320;-121.762;2023-11-19T05:58:41;100514.92;;;22.96;34.55
49529;BME280;35423;37.320;-121.762;2023-11-19T06:01:06;100528.35;;;23.03;33.95
49529;BME280;35423;37.320;-121.762;2023-11-19T06:03:31;100534.22;;;22.27;33.57
49529;BME280;35423;37.320;-121.762;2023-11-19T06:05:57;100539.78;;;22.59;33.35
49529;BME280;35423;37.320;-121.762;2023-11-19T06:08:24;100540.92;;;21.91;33.56
49529;BME280;35423;37.320;-121.762;2023-11-19T06:10:50;100548.60;;;22.68;33.45
49529;BME280;35423;37.320;-121.762;2023-11-19T06:13:16;100552.37;;;21.40;33.56
49529;BME280;35423;37.320;-121.762;2023-11-19T06:15:45;100553.34;;;21.95;33.65
49529;BME280;35423;37.320;-121.762;2023-11-19T06:18:10;100555.86;;;21.50;33.93
49529;BME280;35423;37.320;-121.762;2023-11-19T06:20:42;100566.35;;;21.96;33.89
49529;BME280;35423;37.320;-121.762;2023-11-19T06:23:10;100571.52;;;21.23;33.90
49529;BME280;35423;37.320;-121.762;2023-11-19T06:25:35;100571.78;;;21.71;33.89
49529;BME280;35423;37.320;-121.762;2023-11-19T06:28:06;100571.68;;;20.92;33.88
49529;BME280;35423;37.320;-121.762;2023-11-19T06:30:35;100565.06;;;21.33;33.99
49529;BME280;35423;37.320;-121.762;2023-11-19T06:33:09;100566.19;;;20.82;34.04
49529;BME280;35423;37.320;-121.762;2023-11-19T06:35:34;100574.46;;;21.83;33.99
49529;BME280;35423;37.320;-121.762;2023-11-19T06:38:07;100577.19;;;21.01;34.01
49529;BME280;35423;37.320;-121.762;2023-11-19T06:40:26;100585.03;;;21.76;34.00
49529;BME280;35423;37.320;-121.762;2023-11-19T06:42:52;100593.56;;;21.27;33.82
49529;BME280;35423;37.320;-121.762;2023-11-19T06:45:20;100601.78;;;20.99;33.72
49529;BME280;35423;37.320;-121.762;2023-11-19T06:47:47;100608.37;;;21.26;33.65
49529;BME280;35423;37.320;-121.762;2023-11-19T06:50:13;100614.68;;;21.33;33.41
49529;BME280;35423;37.320;-121.762;2023-11-19T06:52:39;100616.82;;;21.80;33.31
49529;BME280;35423;37.320;-121.762;2023-11-19T06:55:05;100617.80;;;21.77;33.09
49529;BME280;35423;37.320;-121.762;2023-11-19T06:57:31;100624.31;;;21.39;33.10
49529;BME280;35423;37.320;-121.762;2023-11-19T06:59:58;100624.78;;;21.61;33.11
49529;BME280;35423;37.320;-121.762;2023-11-19T07:02:25;100629.22;;;21.53;33.18
49529;BME280;35423;37.320;-121.762;2023-11-19T07:04:49;100629.94;;;21.22;33.21
49529;BME280;35423;37.320;-121.762;2023-11-19T07:07:15;100634.64;;;20.97;33.16
49529;BME280;35423;37.320;-121.762;2023-11-19T07:09:42;100644.79;;;21.43;33.25
49529;BME280;35423;37.320;-121.762;2023-11-19T07:12:08;100655.14;;;21.57;33.32
49529;BME280;35423;37.320;-121.762;2023-11-19T07:14:35;100660.56;;;20.85;33.29
49529;BME280;35423;37.320;-121.762;2023-11-19T07:17:01;100671.65;;;21.30;33.23
49529;BME280;35423;37.320;-121.762;2023-11-19T07:19:33;100671.30;;;21.07;32.94
49529;BME280;35423;37.320;-121.762;2023-11-19T07:21:59;100673.31;;;21.46;32.85
49529;BME280;35423;37.320;-121.762;2023-11-19T07:24:26;100686.83;;;21.25;32.73
49529;BME280;35423;37.320;-121.762;2023-11-19T07:26:59;100696.61;;;21.17;32.60
49529;BME280;35423;37.320;-121.762;2023-11-19T07:29:18;100704.19;;;20.72;32.63
49529;BME280;35423;37.320;-121.762;2023-11-19T07:31:42;100707.67;;;21.43;32.64
49529;BME280;35423;37.320;-121.762;2023-11-19T07:34:09;100710.38;;;21.16;32.60
49529;BME280;35423;37.320;-121.762;2023-11-19T07:36:38;100714.32;;;21.12;32.65
49529;BME280;35423;37.320;-121.762;2023-11-19T07:39:04;100715.37;;;21.06;32.58
49529;BME280;35423;37.320;-121.762;2023-11-19T07:41:28;100721.16;;;20.88;32.57
49529;BME280;35423;37.320;-121.762;2023-11-19T07:43:59;100719.26;;;20.81;32.67
49529;BME280;35423;37.320;-121.762;2023-11-19T07:46:26;100714.30;;;20.88;32.57
49529;BME280;35423;37.320;-121.762;2023-11-19T07:48:52;100711.18;;;21.00;32.38
49529;BME280;35423;37.320;-121.762;2023-11-19T07:51:21;100718.11;;;20.45;32.36
49529;BME280;35423;37.320;-121.762;2023-11-19T07:53:49;100712.35;;;20.76;32.57
49529;BME280;35423;37.320;-121.762;2023-11-19T07:56:18;100710.77;;;20.32;32.79
49529;BME280;35423;37.320;-121.762;2023-11-19T07:58:47;100711.16;;;20.85;33.03
49529;BME280;35423;37.320;-121.762;2023-11-19T08:01:13;100707.16;;;19.83;33.01
49529;BME280;35423;37.320;-121.762;2023-11-19T08:03:37;100713.03;;;20.52;32.38
49529;BME280;35423;37.320;-121.762;2023-11-19T08:06:03;100708.03;;;20.87;32.35
49529;BME280;35423;37.320;-121.762;2023-11-19T08:08:34;100707.93;;;20.35;32.60
49529;BME280;35423;37.320;-121.762;2023-11-19T08:11:00;100718.56;;;20.67;32.64
49529;BME280;35423;37.320;-121.762;2023-11-19T08:13:28;100725.03;;;19.79;32.62
49529;BME280;35423;37.320;-121.762;2023-11-19T08:15:49;100732.55;;;20.47;32.21
49529;BME280;35423;37.320;-121.762;2023-11-19T08:18:17;100735.02;;;19.51;32.08
49529;BME280;35423;37.320;-121.762;2023-11-19T08:20:45;100742.93;;;19.83;32.14
49529;BME280;35423;37.320;-121.762;2023-11-19T08:23:11;100746.83;;;19.22;32.25
49529;BME280;35423;37.320;-121.762;2023-11-19T08:25:39;100752.99;;;19.93;32.22
49529;BME280;35423;37.320;-121.762;2023-11-19T08:28:04;100750.18;;;19.36;32.21
49529;BME280;35423;37.320;-121.762;2023-11-19T08:30:31;100747.11;;;19.74;32.15
49529;BME280;35423;37.320;-121.762;2023-11-19T08:32:55;100744.45;;;19.16;32.12
49529;BME280;35423;37.320;-121.762;2023-11-19T08:35:24;100738.33;;;19.61;32.06
49529;BME280;35423;37.320;-121.762;2023-11-19T08:37:55;100725.62;;;19.28;31.95
49529;BME280;35423;37.320;-121.762;2023-11-19T08:40:30;100718.93;;;19.02;31.78
49529;BME280;35423;37.320;-121.762;2023-11-19T08:42:56;100710.83;;;18.90;31.87
49529;BME280;35423;37.320;-121.762;2023-11-19T08:45:23;100712.86;;;18.86;31.81
49529;BME280;35423;37.320;-121.762;2023-11-19T08:47:49;100712.61;;;19.28;31.77
49529;BME280;35423;37.320;-121.762;2023-11-19T08:50:17;100708.75;;;18.85;31.61
49529;BME280;35423;37.320;-121.762;2023-11-19T08:52:49;100711.54;;;19.60;31.68
49529;BME280;35423;37.320;-121.762;2023-11-19T08:55:14;100710.30;;;19.48;31.63
49529;BME280;35423;37.320;-121.762;2023-11-19T08:57:39;100704.19;;;19.39;31.58
49529;BME280;35423;37.320;-121.762;2023-11-19T09:00:07;100709.25;;;19.41;31.46
49529;BME280;35423;37.320;-121.762;2023-11-19T09:02:30;100712.97;;;19.40;31.38
49529;BME280;35423;37.320;-121.762;2023-11-19T09:05:03;100709.72;;;19.14;31.29
49529;BME280;35423;37.320;-121.762;2023-11-19T09:07:28;100713.65;;;19.21;31.38
49529;BME280;35423;37.320;-121.762;2023-11-19T09:10:02;100723.09;;;18.91;31.37
49529;BME280;35423;37.320;-121.762;2023-11-19T09:12:26;100721.51;;;19.34;31.30
49529;BME280;35423;37.320;-121.762;2023-11-19T09:14:55;100723.69;;;18.86;31.23
49529;BME280;35423;37.320;-121.762;2023-11-19T09:17:23;100727.73;;;19.01;31.17
49529;BME280;35423;37.320;-121.762;2023-11-19T09:19:48;100724.35;;;18.49;31.11
49529;BME280;35423;37.320;-121.762;2023-11-19T09:22:18;100723.95;;;19.02;30.94
49529;BME280;35423;37.320;-121.762;2023-11-19T09:25:03;100726.99;;;18.89;30.98
49529;BME280;35423;37.320;-121.762;2023-11-19T09:27:28;100732.60;;;18.72;30.73
49529;BME280;35423;37.320;-121.762;2023-11-19T09:29:58;100742.48;;;18.72;30.55
49529;BME280;35423;37.320;-121.762;2023-11-19T09:32:25;100745.74;;;18.86;30.44
49529;BME280;35423;37.320;-121.762;2023-11-19T09:34:50;100745.59;;;18.84;30.27
49529;BME280;35423;37.320;-121.762;2023-11-19T09:37:16;100746.53;;;18.23;30.28
49529;BME280;35423;37.320;-121.762;2023-11-19T09:39:44;100750.20;;;18.67;30.30
49529;BME280;35423;37.320;-121.762;2023-11-19T09:42:11;100755.41;;;19.12;30.31
49529;BME280;35423;37.320;-121.762;2023-11-19T09:44:46;100755.16;;;18.52;30.32
49529;BME280;35423;37.320;-121.762;2023-11-19T09:47:10;100752.59;;;18.44;30.39
49529;BME280;35423;37.320;-121.762;2023-11-19T09:49:36;100748.74;;;18.48;30.23
49529;BME280;35423;37.320;-121.762;2023-11-19T09:52:02;100744.32;;;18.48;30.06
49529;BME280;35423;37.320;-121.762;2023-11-19T09:54:28;100748.85;;;18.46;30.11
49529;BME280;35423;37.320;-121.762;2023-11-19T09:56:56;100750.28;;;18.43;30.20
49529;BME280;35423;37.320;-121.762;2023-11-19T09:59:24;100747.69;;;18.20;30.29
49529;BME280;35423;37.320;-121.762;2023-11-19T10:01:51;100746.42;;;18.90;30.41
49529;BME280;35423;37.320;-121.762;2023-11-19T10:04:22;100746.79;;;18.11;30.58
49529;BME280;35423;37.320;-121.762;2023-11-19T10:06:42;100753.26;;;18.53;30.73
49529;BME280;35423;37.320;-121.762;2023-11-19T10:09:07;100766.88;;;18.67;30.97
49529;BME280;35423;37.320;-121.762;2023-11-19T10:11:38;100779.74;;;18.06;31.09
49529;BME280;35423;37.320;-121.762;2023-11-19T10:14:00;100791.48;;;18.44;31.27
49529;BME280;35423;37.320;-121.762;2023-11-19T10:16:34;100799.34;;;17.91;31.33
49529;BME280;35423;37.320;-121.762;2023-11-19T10:18:55;100806.74;;;18.38;31.46
49529;BME280;35423;37.320;-121.762;2023-11-19T10:21:27;100809.12;;;17.63;31.55
49529;BME280;35423;37.320;-121.762;2023-11-19T10:23:48;100819.51;;;18.25;31.73
49529;BME280;35423;37.320;-121.762;2023-11-19T10:26:10;100826.18;;;17.69;31.79
49529;BME280;35423;37.320;-121.762;2023-11-19T10:28:41;100826.05;;;17.91;31.88
49529;BME280;35423;37.320;-121.762;2023-11-19T10:31:08;100832.82;;;18.16;31.87
49529;BME280;35423;37.320;-121.762;2023-11-19T10:33:33;100836.31;;;17.78;31.95
49529;BME280;35423;37.320;-121.762;2023-11-19T10:35:59;100834.93;;;17.99;31.80
49529;BME280;35423;37.320;-121.762;2023-11-19T10:38:27;100829.66;;;17.46;31.87
49529;BME280;35423;37.320;-121.762;2023-11-19T10:40:56;100824.19;;;17.94;31.91
49529;BME280;35423;37.320;-121.762;2023-11-19T10:43:22;100811.76;;;17.32;32.11
49529;BME280;35423;37.320;-121.762;2023-11-19T10:45:49;100810.07;;;18.02;32.15
49529;BME280;35423;37.320;-121.762;2023-11-19T10:48:13;100813.13;;;17.01;32.29
49529;BME280;35423;37.320;-121.762;2023-11-19T10:50:40;100819.19;;;17.76;32.24
49529;BME280;35423;37.320;-121.762;2023-11-19T10:53:04;100831.11;;;17.16;32.36
49529;BME280;35423;37.320;-121.762;2023-11-19T10:55:31;100836.82;;;17.67;32.35
49529;BME280;35423;37.320;-121.762;2023-11-19T10:57:55;100838.66;;;17.05;32.44
49529;BME280;35423;37.320;-121.762;2023-11-19T11:00:25;100836.50;;;17.04;32.40
49529;BME280;35423;37.320;-121.762;2023-11-19T11:02:50;100829.17;;;17.93;32.49
49529;BME280;35423;37.320;-121.762;2023-11-19T11:05:16;100822.88;;;16.70;32.84
49529;BME280;35423;37.320;-121.762;2023-11-19T11:07:44;100820.61;;;17.32;32.93
49529;BME280;35423;37.320;-121.762;2023-11-19T11:10:14;100833.45;;;17.11;32.85
49529;BME280;35423;37.320;-121.762;2023-11-19T11:12:40;100847.69;;;17.26;32.83
49529;BME280;35423;37.320;-121.762;2023-11-19T11:15:04;100863.50;;;17.21;32.84
49529;BME280;35423;37.320;-121.762;2023-11-19T11:17:34;100863.82;;;17.16;32.84
49529;BME280;35423;37.320;-121.762;2023-11-19T11:20:05;100865.69;;;17.17;32.73
49529;BME280;35423;37.320;-121.762;2023-11-19T11:22:44;100855.78;;;17.11;32.80
49529;BME280;35423;37.320;-121.762;2023-11-19T11:25:18;100848.86;;;17.11;32.85
49529;BME280;35423;37.320;-121.762;2023-11-19T11:30:04;100837.71;;;16.80;32.97
49529;BME280;35423;37.320;-121.762;2023-11-19T11:32:40;100831.57;;;16.98;32.88
49529;BME280;35423;37.320;-121.762;2023-11-19T11:35:13;100825.45;;;17.23;32.87
49529;BME280;35423;37.320;-121.762;2023-11-19T11:37:35;100835.03;;;16.91;32.89
49529;BME280;35423;37.320;-121.762;2023-11-19T11:39:58;100852.45;;;16.64;32.88
49529;BME280;35423;37.320;-121.762;2023-11-19T11:44:58;100862.85;;;16.81;32.83
49529;BME280;35423;37.320;-121.762;2023-11-19T11:47:23;100864.96;;;16.56;32.73
49529;BME280;35423;37.320;-121.762;2023-11-19T11:49:50;100857.03;;;17.07;32.64
49529;BME280;35423;37.320;-121.762;2023-11-19T11:52:16;100852.93;;;16.21;32.79
49529;BME280;35423;37.320;-121.762;2023-11-19T11:54:44;100853.42;;;16.66;32.77
49529;BME280;35423;37.320;-121.762;2023-11-19T11:57:13;100867.76;;;16.92;32.74
49529;BME280;35423;37.320;-121.762;2023-11-19T11:59:53;100882.27;;;16.61;32.66
49529;BME280;35423;37.320;-121.762;2023-11-19T12:02:29;100887.90;;;16.30;32.80
49529;BME280;35423;37.320;-121.762;2023-11-19T12:04:48;100887.60;;;16.28;32.69
49529;BME280;35423;37.320;-121.762;2023-11-19T12:07:18;100885.53;;;16.26;32.68
49529;BME280;35423;37.320;-121.762;2023-11-19T12:09:47;100890.94;;;16.49;32.66
49529;BME280;35423;37.320;-121.762;2023-11-19T12:12:20;100884.80;;;15.97;32.70
49529;BME280;35423;37.320;-121.762;2023-11-19T12:19:28;100880.84;;;16.61;32.82
49529;BME280;35423;37.320;-121.762;2023-11-19T12:21:55;100883.59;;;16.59;32.79
49529;BME280;35423;37.320;-121.762;2023-11-19T12:24:20;100891.63;;;16.43;32.92
49529;BME280;35423;37.320;-121.762;2023-11-19T12:26:47;100897.03;;;16.25;33.06
49529;BME280;35423;37.320;-121.762;2023-11-19T12:29:11;100899.20;;;15.76;33.05
49529;BME280;35423;37.320;-121.762;2023-11-19T12:31:44;100900.28;;;16.23;33.07